< Typhoon 199014 1990 Season Typhoon 199016 >
Typhoon 199015 (ABE)
General InformationTrack Information on Google MapsDetailed Wind InformationList of All Images || Disaster Info.ResourceGoogle EarthGE AnimationAtom FeedGeoJSON
Detalied Best Track (Time Zone = UTC)
Year Month Day Hour Lat. Long. Pressure (hPa) Wind (kt) Class Image Chart
1990 8 24 06 12.5 144.0 1002 0 2 Image Chart
1990 8 24 12 12.8 143.7 1002 0 2 Image Chart
1990 8 24 18 13.0 143.5 998 0 2 Image Chart
1990 8 25 00 13.4 143.3 996 35 3 Image Chart
1990 8 25 06 13.7 143.2 996 35 3 Image Chart
1990 8 25 12 14.0 143.0 994 35 3 Image Chart
1990 8 25 18 14.3 142.6 994 35 3 Image Chart
1990 8 26 00 14.5 142.3 992 40 3 Image Chart
1990 8 26 06 15.0 142.0 992 40 3 Image Chart
1990 8 26 12 15.7 141.7 990 45 3 Image Chart
1990 8 26 18 16.5 141.4 990 45 3 Image Chart
1990 8 27 00 17.8 141.0 990 45 3 Image Chart
1990 8 27 06 19.1 140.1 985 50 4 Image Chart
1990 8 27 12 20.3 139.0 985 50 4 Image Chart
1990 8 27 18 21.0 137.3 980 55 4 Image Chart
1990 8 28 00 21.5 135.5 980 55 4 Image Chart
1990 8 28 06 22.0 134.0 975 60 4 Image Chart
1990 8 28 12 22.4 132.3 975 60 4 Image Chart
1990 8 28 18 23.0 130.7 970 65 5 Image Chart
1990 8 29 00 23.6 129.0 965 70 5 Image Chart
1990 8 29 06 24.0 127.6 960 70 5 Image Chart
1990 8 29 12 24.5 126.4 960 70 5 Image Chart
1990 8 29 18 24.7 125.5 955 75 5 Image Chart
1990 8 30 00 25.2 124.6 955 75 5 Image Chart
1990 8 30 06 25.8 123.8 955 75 5 Image Chart
1990 8 30 12 26.5 122.9 955 75 5 Image Chart
1990 8 30 18 27.1 122.3 960 70 5 Image Chart
1990 8 31 00 28.4 121.9 970 65 5 Image Chart
1990 8 31 06 29.5 120.9 980 55 4 Image Chart
1990 8 31 12 30.0 120.5 985 50 4 Image Chart
1990 8 31 18 30.6 120.4 988 45 3 Image Chart
1990 9 1 00 31.4 120.6 992 40 3 Image Chart
1990 9 1 06 32.8 121.0 994 35 3 Image Chart
1990 9 1 12 34.0 122.0 996 0 6 Image Chart
1990 9 1 18 36.0 124.0 996 0 6 Image Chart
1990 9 2 00 37.0 125.0 998 0 6 Image Chart
1990 9 2 06 38.0 127.0 998 0 6 Image Chart
1990 9 2 12 39.0 129.0 998 0 6 Image Chart
1990 9 2 18 40.0 131.0 998 0 6 Image Chart
1990 9 3 00 40.0 133.0 998 0 6 Image Chart
1990 9 3 06 41.0 136.0 998 0 6 Image Chart
1990 9 3 12 41.0 139.0 998 0 6 Image Chart
1990 9 3 18 42.0 142.0 1000 0 6 Image Chart
Japan Meteorological Agency Best Track Data | Correction Date : 1992-10-21
< Typhoon 199014 1990 Season Typhoon 199016 >

Help